Flight Track Log - Related Links

Times and Time Zones

All times are in EDT time to prevent confusion due to time zone crossing. See the JIA4682 flight status page for this flight to view local times or setup timezone preferences in your user account.

Time Position Orientation Groundspeed Altitude Reporting Facility
EDT Latitude Longitude Course Direction KTS MPH feet Rate Location/Type
Fri 11:01:00 AM 35.6058 -77.6676 278° West  Level Estimated
Fri 11:02:00 AM 35.6312 -77.7572 289° West  Level FlightAware Approximate
Fri 11:03:00 AM 35.6201 -77.8511 276° West  Level Estimated
Fri 11:04:00 AM 35.6447 -77.9410 289° West  Level FlightAware Approximate
Fri 11:05:00 AM 35.6324 -78.0347 284° West  Level Estimated
Fri 11:06:00 AM 35.6201 -78.1283 275° West  Level Estimated
Fri 11:07:00 AM 35.6496 -78.2160 292° West  Level FlightAware Approximate
Fri 11:08:00 AM 35.6358 -78.3093 270° West  Level Estimated
Fri 11:09:00 AM 35.6219 -78.4027 279° West  Level Estimated
Fri 11:10:00 AM 35.6614 -78.4842 301° West  Level FlightAware Approximate
Fri 11:11:00 AM 35.6455 -78.5770 276° West  Level Estimated
Fri 11:12:00 AM 35.6769 -78.6637 294° West  Level FlightAware Approximate
Fri 11:13:00 AM 35.6591 -78.7561 270° West  Level Estimated
Fri 11:14:00 AM 35.6413 -78.8484 276° West  Level Estimated
Fri 11:15:00 AM 35.6613 -78.9400 285° West  Level FlightAware Approximate
Fri 11:16:00 AM 35.6813 -79.0317 285° West  Level FlightAware Approximate
Fri 11:17:00 AM 35.7013 -79.1234 285° West  Level FlightAware Approximate
Fri 11:18:00 AM 35.7211 -79.2152 285° West  Level FlightAware Approximate
Fri 11:19:00 AM 35.7409 -79.3070 285° West  Level FlightAware Approximate
Fri 11:20:00 AM 35.7606 -79.3988 285° West  Level FlightAware Approximate
Fri 11:21:00 AM 35.7305 -79.4863 270° West  Level Estimated
Fri 11:22:00 AM 35.7531 -79.5771 287° West  Level FlightAware Approximate
Fri 11:23:00 AM 35.7200 -79.6629 270° West  Level Estimated
Fri 11:24:00 AM 35.7355 -79.7560 282° West  Level FlightAware Approximate
Fri 11:25:00 AM 35.7508 -79.8491 282° West  Level FlightAware Approximate
Fri 11:25:09 AM 36.0089 -80.1397 238° Southwest 326 375 17,000  Level Atlanta Center
Fri 11:26:00 AM 35.7661 -79.9422 281° West  Level FlightAware Approximate
Fri 11:26:09 AM 35.9681 -80.2392 243° Southwest 288 331 16,900  Level Atlanta Center
Fri 11:27:00 AM 35.7234 -80.0212 270° West  Level Estimated
Fri 11:27:09 AM 35.9039 -80.3164 224° Southwest 302 348 17,000  Level Atlanta Center
Fri 11:27:11 AM 35.8958 -80.3322 238° Southwest 351 404 17,100 -100 Climbing Atlanta Center
Fri 11:28:00 AM 35.6805 -80.1002 270° West  Level Estimated
Fri 11:28:09 AM 35.8375 -80.4014 224° Southwest 334 384 16,900  Level Atlanta Center
Fri 11:28:37 AM 35.8014 -80.4464 225° Southwest 339 390 16,500 -900 Descending Atlanta Center
Fri 11:29:00 AM 35.6376 -80.1790 270° West  Level Estimated
Fri 11:29:09 AM 35.7667 -80.4736 212° Southwest 344 396 16,000  Level Atlanta Center
Fri 11:29:25 AM 35.7381 -80.4981 215° Southwest 306 352 15,600 -1,000 Descending Atlanta Center
Fri 11:30:00 AM 35.5947 -80.2578 213° Southwest  Level Estimated
Fri 11:30:09 AM 35.6933 -80.5331 212° Southwest 331 381 15,000  Level Atlanta Center
Fri 11:30:26 AM 35.6667 -80.5572 216° Southwest 312 359 14,600 -1,000 Descending Atlanta Center
Fri 11:31:00 AM 35.5517 -80.3365 180° South  Level Estimated
Fri 11:31:09 AM 35.6158 -80.6003 215° Southwest 325 374 14,000  Level Atlanta Center
Fri 11:31:28 AM 35.5975 -80.6189 231° Southwest 315 362 13,600 -1,100 Descending Atlanta Center
Fri 11:32:00 AM 35.5087 -80.4151 195° South  Level Estimated
Fri 11:32:09 AM 35.5444 -80.6594 212° Southwest 320 368 12,900  Level Atlanta Center
Fri 11:32:35 AM 35.5181 -80.6836 217° Southwest 295 339 12,400 -1,000 Descending Atlanta Center
Fri 11:33:00 AM 35.4656 -80.4937 195° South  Level Estimated
Fri 11:33:09 AM 35.4792 -80.7131 212° Southwest 301 346 11,900  Level Atlanta Center
Fri 11:33:42 AM 35.4467 -80.7450 219° Southwest 284 327 11,300 -1,100 Descending Atlanta Center
Fri 11:34:00 AM 35.4224 -80.5721 219° Southwest  Level Estimated
Fri 11:34:09 AM 35.4139 -80.7692 211° Southwest 295 339 10,800  Level Atlanta Center
Fri 11:34:42 AM 35.3792 -80.7986 215° Southwest 287 330 10,300 -700 Descending Atlanta Center
Fri 11:35:00 AM 35.3614 -80.7219 219° Southwest  Level FlightAware Approximate
Fri 11:35:00 AM 35.3933 -80.6634 238° Southwest  Level FlightAware Approximate
Fri 11:35:09 AM 35.3486 -80.8203 210° Southwest 295 339 10,100  Level Atlanta Center
Fri 11:35:38 AM 35.3197 -80.8417 211° Southwest 272 313 9,900 -600 Descending Atlanta Center
Fri 11:36:09 AM 35.2781 -80.8383 176° South 283 326 9,500 -787 Descending Atlanta Center
Fri 11:36:39 AM 35.2425 -80.8372 179° South 251 289 9,100 -700 Descending Atlanta Center
Fri 11:37:09 AM 35.2092 -80.8333 175° South 254 292 8,800 -984 Descending Atlanta Center
Fri 11:37:40 AM 35.1756 -80.8319 178° South 235 270 8,100 -1,408 Descending Atlanta Center
Fri 11:38:47 AM 35.1025 -80.8272 177° South 237 273 6,500 -1,453 Descending Atlanta Center
Fri 11:39:48 AM 35.0356 -80.8197 175° South 237 273 5,000 -1,220 Descending Atlanta Center
Fri 11:40:50 AM 34.9883 -80.8544 211° Southwest 205 236 4,000 -419 Descending Atlanta Center
Fri 11:41:57 AM 35.0042 -80.9019 292° West 160 184 4,100 -49 Climbing Atlanta Center
Fri 11:42:00 AM 35.2000 -80.9333 231° Southwest  Level FlightAware Approximate
Fri 11:42:52 AM 35.0464 -80.9158 345° North 169 194 3,900  Level Atlanta Center
Fri 11:43:53 AM 35.0947 -80.9267 350° North 180 207 3,000 -1,034 Descending Atlanta Center
Fri 11:44:48 AM 35.1428 -80.9325 354° North 184 212 1,900 -891 Descending Atlanta Center
Fri 11:46:01 AM 35.1886 -80.9358 357° North 129 148 1,100 -658 Descending Atlanta Center

Login

Don't have an account? Register now (free) for customized features, flight alerts, and more!